createdAt,value
2023-03-26T00:02:20.909Z,12.43
2023-03-26T00:04:48.453Z,9.13
2023-03-26T00:07:16.079Z,7.72
2023-03-26T00:09:44.193Z,11.02
2023-03-26T00:12:13.038Z,5.82
2023-03-26T00:14:41.375Z,5.53
2023-03-26T00:17:08.991Z,8.75
2023-03-26T00:19:36.964Z,9.18
2023-03-26T00:22:04.626Z,9.88
2023-03-26T00:24:32.203Z,10.00
2023-03-26T00:26:59.785Z,7.85
2023-03-26T00:29:28.834Z,10.52
2023-03-26T00:31:56.281Z,9.32
2023-03-26T00:34:24.851Z,8.65
2023-03-26T00:36:54.578Z,6.00
2023-03-26T00:39:24.037Z,6.30
2023-03-26T00:41:54.425Z,10.27
2023-03-26T00:44:22.486Z,6.88
2023-03-26T00:46:51.370Z,8.25
2023-03-26T00:49:18.811Z,8.20
2023-03-26T00:51:46.268Z,9.75
2023-03-26T00:54:13.711Z,5.45
2023-03-26T00:56:41.241Z,7.00
2023-03-26T00:59:09.343Z,7.68
2023-03-26T01:01:37.677Z,9.77
2023-03-26T01:04:27.650Z,9.00
2023-03-26T01:06:56.429Z,9.63
2023-03-26T01:09:26.679Z,7.93
2023-03-26T01:11:54.164Z,9.02
2023-03-26T01:14:23.512Z,8.00
2023-03-26T01:16:52.945Z,6.88
2023-03-26T01:19:23.592Z,10.02
2023-03-26T01:21:52.433Z,6.23
2023-03-26T01:24:22.138Z,8.30
2023-03-26T01:27:01.103Z,8.63
2023-03-26T01:29:31.752Z,8.38
2023-03-26T01:32:04.274Z,10.02
2023-03-26T01:34:37.263Z,7.75
2023-03-26T01:37:09.973Z,8.82
2023-03-26T01:39:42.832Z,6.40
2023-03-26T01:42:12.372Z,6.95
2023-03-26T01:44:42.829Z,9.77
2023-03-26T01:47:10.990Z,9.07
2023-03-26T01:49:38.466Z,8.48
2023-03-26T01:52:07.592Z,7.25
2023-03-26T01:54:35.080Z,8.65
2023-03-26T01:57:08.302Z,9.27
2023-03-26T01:59:43.866Z,9.02
2023-03-26T02:02:13.876Z,10.60
2023-03-26T02:04:44.480Z,9.98
2023-03-26T02:07:17.871Z,11.30
2023-03-26T02:09:47.206Z,10.27
2023-03-26T02:12:16.210Z,8.75
2023-03-26T02:14:43.772Z,10.43
2023-03-26T02:17:11.333Z,8.27
2023-03-26T02:19:41.815Z,5.32
2023-03-26T02:22:11.264Z,9.07
2023-03-26T02:24:39.346Z,10.63
2023-03-26T02:27:07.756Z,8.15
2023-03-26T02:29:38.248Z,7.95
2023-03-26T02:32:05.977Z,9.70
2023-03-26T02:34:33.751Z,8.50
2023-03-26T02:37:01.358Z,9.93
2023-03-26T02:39:28.866Z,8.18
2023-03-26T02:41:56.301Z,7.27
2023-03-26T02:44:23.760Z,9.02
2023-03-26T02:46:52.558Z,9.63
2023-03-26T02:49:19.991Z,8.48
2023-03-26T02:51:47.354Z,8.80
2023-03-26T02:54:16.206Z,7.50
2023-03-26T02:56:43.692Z,6.30
2023-03-26T02:59:11.206Z,10.45
2023-03-26T03:01:42.780Z,8.77
2023-03-26T03:04:11.676Z,6.72
2023-03-26T03:06:40.397Z,9.00
2023-03-26T03:09:08.470Z,8.25
2023-03-26T03:11:36.802Z,9.68
2023-03-26T03:14:04.479Z,8.40
2023-03-26T03:16:32.199Z,7.75
2023-03-26T03:18:59.917Z,8.27
2023-03-26T03:21:29.779Z,7.93
2023-03-26T03:24:00.120Z,6.45
2023-03-26T03:26:29.755Z,9.38
2023-03-26T03:28:57.741Z,8.90
2023-03-26T03:31:25.748Z,7.60
2023-03-26T03:33:53.587Z,8.48
2023-03-26T03:36:23.007Z,9.95
2023-03-26T03:38:52.202Z,7.17
2023-03-26T03:41:19.655Z,7.30
2023-03-26T03:43:47.114Z,9.15
2023-03-26T03:46:14.577Z,8.73
2023-03-26T03:48:48.053Z,10.68
2023-03-26T03:51:15.591Z,8.00
2023-03-26T03:53:43.070Z,10.30
2023-03-26T03:56:13.819Z,8.43
2023-03-26T03:58:42.254Z,8.20
2023-03-26T04:01:11.093Z,10.82
2023-03-26T04:03:39.378Z,9.50
2023-03-26T04:06:07.939Z,8.82
2023-03-26T04:08:35.617Z,9.65
2023-03-26T04:11:03.196Z,9.38
2023-03-26T04:13:31.995Z,9.10
2023-03-26T04:16:00.017Z,8.80
2023-03-26T04:18:27.714Z,9.10
2023-03-26T04:20:55.810Z,7.75
2023-03-26T04:23:23.380Z,9.65
2023-03-26T04:25:53.863Z,7.43
2023-03-26T04:28:28.128Z,10.35
2023-03-26T04:31:00.621Z,9.20
2023-03-26T04:33:28.814Z,9.37
2023-03-26T04:36:01.457Z,8.13
2023-03-26T04:38:29.928Z,6.35
2023-03-26T04:41:00.867Z,11.10
2023-03-26T04:43:30.242Z,12.10
2023-03-26T04:46:02.258Z,8.65
2023-03-26T04:48:30.370Z,10.45
2023-03-26T04:50:58.050Z,11.02
2023-03-26T04:53:25.545Z,13.70
2023-03-26T04:55:56.601Z,10.88
2023-03-26T04:58:32.850Z,12.82
2023-03-26T05:01:09.930Z,8.43
2023-03-26T05:03:40.617Z,8.73
2023-03-26T05:06:09.406Z,13.35
2023-03-26T05:08:36.969Z,14.65
2023-03-26T05:11:07.371Z,14.20
2023-03-26T05:13:34.849Z,14.82
2023-03-26T05:16:03.850Z,14.55
2023-03-26T05:18:32.246Z,13.70
2023-03-26T05:20:59.755Z,12.98
2023-03-26T05:23:27.226Z,13.57
2023-03-26T05:25:54.887Z,13.35
2023-03-26T05:28:24.565Z,9.40
2023-03-26T05:30:53.171Z,10.07
2023-03-26T05:33:22.466Z,12.75
2023-03-26T05:35:59.464Z,10.37
2023-03-26T05:38:28.941Z,14.40
2023-03-26T05:40:58.866Z,13.45
2023-03-26T05:43:26.377Z,10.88
2023-03-26T05:45:53.869Z,10.13
2023-03-26T05:48:22.811Z,11.10
2023-03-26T05:50:50.465Z,13.00
2023-03-26T05:53:18.274Z,10.97
2023-03-26T05:55:46.768Z,11.98
2023-03-26T05:58:14.495Z,14.20
2023-03-26T06:00:41.964Z,13.98
2023-03-26T06:03:12.980Z,14.73
2023-03-26T06:05:42.974Z,14.57
2023-03-26T06:08:10.463Z,11.73
2023-03-26T06:10:38.522Z,15.48
2023-03-26T06:13:06.072Z,15.60
2023-03-26T06:15:33.691Z,17.00
2023-03-26T06:18:01.282Z,18.67
2023-03-26T06:20:28.871Z,13.27
2023-03-26T06:22:57.670Z,16.25
2023-03-26T06:25:25.154Z,14.03
2023-03-26T06:27:52.611Z,17.30
2023-03-26T06:30:20.201Z,13.30
2023-03-26T06:32:47.636Z,13.98
2023-03-26T06:35:15.209Z,15.95
2023-03-26T06:37:42.992Z,16.38
2023-03-26T06:40:13.686Z,19.38
2023-03-26T06:43:08.753Z,13.90
2023-03-26T06:45:29.908Z,12.43
2023-03-26T06:47:57.410Z,12.05
2023-03-26T06:50:24.929Z,12.00
2023-03-26T06:52:54.184Z,16.83
2023-03-26T06:55:23.406Z,13.90
2023-03-26T06:57:50.940Z,17.17
2023-03-26T07:00:18.596Z,14.02
2023-03-26T07:02:46.388Z,14.80
2023-03-26T07:05:14.270Z,15.35
2023-03-26T07:07:46.983Z,12.07
2023-03-26T07:10:15.041Z,14.38
2023-03-26T07:12:44.023Z,11.45
2023-03-26T07:15:11.853Z,14.90
2023-03-26T07:17:39.366Z,15.70
2023-03-26T07:20:07.988Z,14.57
2023-03-26T07:22:36.161Z,13.00
2023-03-26T07:25:03.860Z,13.98
2023-03-26T07:27:39.744Z,13.70
2023-03-26T07:30:10.105Z,14.60
2023-03-26T07:32:43.293Z,13.15
2023-03-26T07:35:14.658Z,12.55
2023-03-26T07:37:46.557Z,15.75
2023-03-26T07:40:18.779Z,15.07
2023-03-26T07:42:55.565Z,15.13
2023-03-26T07:45:27.159Z,13.65
2023-03-26T07:47:57.010Z,15.25
2023-03-26T07:50:25.453Z,12.27
2023-03-26T07:52:53.094Z,13.27
2023-03-26T07:55:20.986Z,9.60
2023-03-26T07:57:56.483Z,13.18
2023-03-26T08:00:27.626Z,15.32
2023-03-26T08:03:10.437Z,10.98
2023-03-26T08:05:43.283Z,13.75
2023-03-26T08:08:16.496Z,12.20
2023-03-26T08:10:50.203Z,10.73
2023-03-26T08:13:22.030Z,12.40
2023-03-26T08:15:54.270Z,12.57
2023-03-26T08:18:27.313Z,11.90
2023-03-26T08:20:58.320Z,14.55
2023-03-26T08:23:28.700Z,13.68
2023-03-26T08:26:02.262Z,15.00
2023-03-26T08:28:33.692Z,9.52
2023-03-26T08:31:04.140Z,12.82
2023-03-26T08:33:32.327Z,12.10
2023-03-26T08:35:59.859Z,9.93
2023-03-26T08:38:27.373Z,12.52
2023-03-26T08:41:14.623Z,12.27
2023-03-26T08:43:59.193Z,10.20
2023-03-26T08:46:40.564Z,10.23
2023-03-26T08:49:29.779Z,12.05
2023-03-26T08:52:21.509Z,12.98
2023-03-26T08:54:57.188Z,12.93
2023-03-26T08:57:49.718Z,11.98
2023-03-26T09:00:32.093Z,7.97
2023-03-26T09:03:09.266Z,12.60
2023-03-26T09:05:46.497Z,9.88
2023-03-26T09:08:54.080Z,10.82
2023-03-26T09:11:45.579Z,11.82
2023-03-26T09:14:33.811Z,10.65
2023-03-26T09:17:21.273Z,12.55
2023-03-26T09:20:08.885Z,12.87
2023-03-26T09:22:48.789Z,9.33
2023-03-26T09:25:31.149Z,13.95
2023-03-26T09:28:29.291Z,13.25
2023-03-26T09:31:17.416Z,12.35
2023-03-26T09:34:00.174Z,8.75
2023-03-26T09:36:40.268Z,11.60
2023-03-26T09:39:10.910Z,12.50
2023-03-26T09:41:42.604Z,10.47
2023-03-26T09:44:27.670Z,12.93
2023-03-26T09:47:00.366Z,11.10
2023-03-26T09:49:35.900Z,9.70
2023-03-26T09:52:24.320Z,7.77
2023-03-26T09:55:02.408Z,9.55
2023-03-26T09:57:36.079Z,9.10
2023-03-26T10:00:18.531Z,7.87
2023-03-26T10:02:50.169Z,10.63
2023-03-26T10:05:22.208Z,10.05
2023-03-26T10:07:53.528Z,9.20
2023-03-26T10:10:27.015Z,7.35
2023-03-26T10:13:11.606Z,8.10
2023-03-26T10:15:49.491Z,10.65
2023-03-26T10:18:27.614Z,12.93
2023-03-26T10:21:00.117Z,11.88
2023-03-26T10:23:39.458Z,8.60
2023-03-26T10:26:14.730Z,9.13
2023-03-26T10:28:48.447Z,7.95
2023-03-26T10:31:28.198Z,6.18
2023-03-26T10:34:00.428Z,9.13
2023-03-26T10:36:32.878Z,7.40
2023-03-26T10:39:36.316Z,9.10
2023-03-26T10:42:12.612Z,6.27
2023-03-26T10:44:50.711Z,8.27
2023-03-26T10:47:26.695Z,7.67
2023-03-26T10:50:09.083Z,6.97
2023-03-26T10:52:38.807Z,8.80
2023-03-26T10:55:12.079Z,7.07
2023-03-26T10:57:42.650Z,9.73
2023-03-26T11:00:17.587Z,6.15
2023-03-26T11:02:47.817Z,9.18
2023-03-26T11:05:27.568Z,6.15
2023-03-26T11:07:58.204Z,8.32
2023-03-26T11:10:30.064Z,6.57
2023-03-26T11:13:02.252Z,9.57
2023-03-26T11:15:32.177Z,7.50
2023-03-26T11:18:06.646Z,7.20
2023-03-26T11:20:38.769Z,8.27
2023-03-26T11:23:16.510Z,7.53
2023-03-26T11:25:57.642Z,6.90
2023-03-26T11:28:32.167Z,6.72
2023-03-26T11:31:03.073Z,6.93
2023-03-26T11:33:33.119Z,8.85
2023-03-26T11:36:02.454Z,11.80
2023-03-26T11:38:31.855Z,9.82
2023-03-26T11:41:01.293Z,4.28
2023-03-26T11:43:31.932Z,6.97
2023-03-26T11:46:00.749Z,5.57
2023-03-26T11:48:31.945Z,7.75
2023-03-26T11:51:04.258Z,6.40
2023-03-26T11:53:34.580Z,6.78
2023-03-26T11:56:04.551Z,5.80
2023-03-26T11:58:35.355Z,5.53
2023-03-26T12:01:05.051Z,6.75
2023-03-26T12:03:32.756Z,9.13
2023-03-26T12:06:02.805Z,4.67
2023-03-26T12:08:33.072Z,3.60
2023-03-26T12:11:02.097Z,6.05
2023-03-26T12:13:30.644Z,5.28
2023-03-26T12:16:02.216Z,6.55
2023-03-26T12:18:29.845Z,6.18
2023-03-26T12:21:05.708Z,6.90
2023-03-26T12:23:38.755Z,6.88
2023-03-26T12:26:13.019Z,6.55
2023-03-26T12:28:44.776Z,6.80
2023-03-26T12:31:18.031Z,7.83
2023-03-26T12:33:46.843Z,6.20
2023-03-26T12:36:18.576Z,5.55
2023-03-26T12:38:46.002Z,5.15
2023-03-26T12:44:42.331Z,6.55
2023-03-26T12:44:55.071Z,4.75
2023-03-26T12:47:58.146Z,9.77
2023-03-26T12:50:09.606Z,5.97
2023-03-26T12:52:42.913Z,5.40
2023-03-26T12:55:17.634Z,15.68
2023-03-26T12:57:51.467Z,5.45
2023-03-26T13:00:26.194Z,7.57
2023-03-26T13:03:17.786Z,5.90
2023-03-26T13:05:57.740Z,5.22
2023-03-26T13:08:36.908Z,6.03
2023-03-26T13:11:06.404Z,6.40
2023-03-26T13:13:41.116Z,5.72
2023-03-26T13:16:10.528Z,6.57
2023-03-26T13:18:43.578Z,4.95
2023-03-26T13:21:13.594Z,6.47
2023-03-26T13:23:44.973Z,5.93
2023-03-26T13:26:16.976Z,5.60
2023-03-26T13:28:49.742Z,5.80
2023-03-26T13:31:20.593Z,6.85
2023-03-26T13:33:55.062Z,5.18
2023-03-26T13:36:25.943Z,5.35
2023-03-26T13:39:03.444Z,5.80
2023-03-26T13:41:34.709Z,4.43
2023-03-26T13:51:29.822Z,7.22
